Time;durP1;ratioP1;P1;durP2;ratioP2;P2;SDS_P1;SDS_P2;PMS_P1;PMS_P2;Temp;Humidity;BMP_temperature;BMP_pressure;BME280_temperature;BME280_humidity;BME280_pressure;Samples;Min_cycle;Max_cycle;Signal;HPM_P1;HPM_P2
2022/03/27 00:00:51;;;;;;;25.52;12.60;;;;;;;11.34;43.31;101096.03;5113152;28;20043;-81
2022/03/27 00:03:19;;;;;;;27.60;12.38;;;;;;;11.26;43.79;101090.22;5112795;28;20052;-79
2022/03/27 00:05:49;;;;;;;25.58;12.93;;;;;;;11.28;43.88;101082.97;5113390;28;20044;-81
2022/03/27 00:08:17;;;;;;;23.33;13.23;;;;;;;11.17;44.18;101084.38;5112980;28;20046;-80
2022/03/27 00:13:31;;;;;;;24.02;12.70;;;;;;;11.04;44.69;101103.75;5114093;28;20073;-81
2022/03/27 00:16:00;;;;;;;26.88;12.18;;;;;;;11.14;44.33;101103.22;5117301;28;20070;-78
2022/03/27 00:18:28;;;;;;;24.33;12.55;;;;;;;11.19;44.32;101094.97;5117067;28;20400;-78
2022/03/27 00:20:58;;;;;;;29.60;13.25;;;;;;;11.25;44.31;101093.81;5117207;28;20546;-79
2022/03/27 00:23:26;;;;;;;25.30;13.20;;;;;;;11.30;44.16;101094.47;5116760;28;20058;-78
2022/03/27 00:25:55;;;;;;;30.83;13.40;;;;;;;11.28;44.33;101091.84;5099194;28;20040;-78
2022/03/27 00:28:23;;;;;;;25.08;12.68;;;;;;;11.22;44.36;101102.00;5098874;28;20073;-83
2022/03/27 00:30:52;;;;;;;23.65;12.52;;;;;;;11.35;44.34;101098.63;5117142;28;20051;-83
2022/03/27 00:33:20;;;;;;;27.77;13.82;;;;;;;11.25;44.59;101100.03;5116804;28;20123;-83
2022/03/27 00:35:48;;;;;;;29.05;13.68;;;;;;;11.23;44.88;101103.72;5116824;28;20454;-83
2022/03/27 00:38:20;;;;;;;31.38;14.05;;;;;;;11.09;45.22;101107.06;5116790;28;20039;-84
2022/03/27 00:40:49;;;;;;;26.98;13.05;;;;;;;11.17;44.83;101099.53;5117049;28;20503;-84
2022/03/27 00:43:18;;;;;;;26.65;14.05;;;;;;;11.31;45.16;101102.41;5116418;28;20353;-83
2022/03/27 00:45:47;;;;;;;20.45;12.75;;;;;;;11.34;44.88;101104.91;5116622;28;20054;-83
2022/03/27 00:48:17;;;;;;;25.60;13.43;;;;;;;11.22;45.29;101118.03;5116478;28;20393;-83
2022/03/27 00:50:46;;;;;;;21.67;12.13;;;;;;;11.11;45.76;101110.53;5116819;28;20036;-83
2022/03/27 00:53:15;;;;;;;31.45;13.82;;;;;;;11.25;45.19;101124.06;5116383;28;20039;-79
2022/03/27 00:55:45;;;;;;;28.48;12.85;;;;;;;11.10;45.66;101117.69;5116491;28;20064;-79
2022/03/27 00:58:14;;;;;;;25.05;13.60;;;;;;;10.96;46.17;101112.13;5116402;28;20035;-79
2022/03/27 01:00:48;;;;;;;23.35;12.50;;;;;;;10.89;46.35;101110.69;5116764;28;20093;-79
2022/03/27 01:03:20;;;;;;;25.48;13.27;;;;;;;10.89;46.42;101116.03;5116332;28;20410;-79
2022/03/27 01:05:49;;;;;;;22.70;12.32;;;;;;;10.92;46.67;101110.56;5116611;28;20062;-78
2022/03/27 01:09:35;;;;;;;26.98;14.25;;;;;;;10.87;46.61;101109.91;5116004;28;20046;-79
2022/03/27 01:11:12;;;;;;;24.00;12.80;;;;;;;10.97;46.40;101107.66;5116043;28;20040;-79
2022/03/27 01:13:44;;;;;;;24.27;13.32;;;;;;;11.12;46.03;101114.94;5116174;28;20457;-82
2022/03/27 01:16:30;;;;;;;26.30;13.38;;;;;;;11.12;45.89;101109.59;5116227;28;20054;-82
2022/03/27 01:19:00;;;;;;;27.05;13.20;;;;;;;11.18;45.52;101111.94;5116399;28;20047;-82
2022/03/27 01:21:30;;;;;;;25.85;13.32;;;;;;;11.10;45.89;101114.16;5116233;28;20040;-82
2022/03/27 01:23:59;;;;;;;25.38;12.80;;;;;;;11.00;45.79;101104.81;5115867;28;20461;-82
2022/03/27 01:26:27;;;;;;;27.90;13.57;;;;;;;10.98;46.04;101120.91;5114951;28;20100;-82
2022/03/27 01:28:55;;;;;;;24.52;13.10;;;;;;;11.12;45.75;101118.47;5115991;28;20092;-80
2022/03/27 01:31:24;;;;;;;26.92;13.68;;;;;;;10.95;46.18;101117.56;5115389;28;20048;-80
2022/03/27 01:33:53;;;;;;;25.77;14.05;;;;;;;10.80;46.53;101117.31;5115673;28;20044;-80
2022/03/27 01:36:23;;;;;;;22.52;13.07;;;;;;;10.68;47.06;101117.91;5115347;28;20104;-80
2022/03/27 01:38:54;;;;;;;25.05;12.75;;;;;;;10.80;46.86;101121.78;5116028;28;20101;-80
2022/03/27 01:41:24;;;;;;;28.80;13.43;;;;;;;11.08;46.03;101130.22;5115562;28;20451;-79
2022/03/27 01:43:52;;;;;;;25.15;12.07;;;;;;;11.09;45.86;101133.75;5097417;28;20047;-78
2022/03/27 01:46:21;;;;;;;26.88;12.57;;;;;;;10.99;46.12;101127.13;5115614;28;20130;-79
2022/03/27 01:48:50;;;;;;;25.60;13.02;;;;;;;10.99;46.32;101135.13;5115391;28;20052;-80
2022/03/27 01:51:18;;;;;;;23.83;13.30;;;;;;;11.11;45.85;101137.25;5115067;28;20039;-79
2022/03/27 01:53:47;;;;;;;26.25;13.70;;;;;;;11.00;45.74;101147.53;5115235;28;20043;-80
2022/03/27 01:56:16;;;;;;;27.27;12.70;;;;;;;10.99;45.99;101145.81;5115264;28;20130;-80
2022/03/27 01:58:45;;;;;;;26.73;13.27;;;;;;;10.87;46.17;101142.78;5115263;28;20055;-78
2022/03/27 02:01:13;;;;;;;25.38;13.23;;;;;;;10.96;46.23;101153.97;5115101;28;20142;-78
2022/03/27 02:03:42;;;;;;;26.27;13.13;;;;;;;10.90;46.21;101149.78;5115176;28;20040;-78
2022/03/27 02:06:10;;;;;;;24.75;13.35;;;;;;;10.72;46.73;101151.53;5114680;28;20101;-78
2022/03/27 02:08:38;;;;;;;24.15;13.05;;;;;;;10.70;46.71;101144.50;5115322;28;20039;-78
2022/03/27 02:11:07;;;;;;;29.40;13.75;;;;;;;10.75;46.63;101146.03;5096601;28;20070;-77
2022/03/27 02:13:37;;;;;;;27.48;12.30;;;;;;;10.95;46.11;101146.91;5114864;28;20046;-78
2022/03/27 02:16:06;;;;;;;22.35;13.05;;;;;;;10.74;46.36;101147.00;5115044;28;20477;-81
2022/03/27 02:18:34;;;;;;;25.50;13.15;;;;;;;10.61;47.04;101140.47;5114816;28;20096;-78
2022/03/27 02:21:03;;;;;;;25.73;13.25;;;;;;;10.55;47.44;101152.31;5115110;28;20059;-79
2022/03/27 02:23:32;;;;;;;26.00;13.55;;;;;;;10.70;47.20;101155.19;5115051;28;20097;-82
2022/03/27 02:26:01;;;;;;;30.17;13.40;;;;;;;10.65;47.33;101155.41;5114982;28;20050;-81
2022/03/27 02:28:30;;;;;;;27.05;13.32;;;;;;;10.63;47.44;101164.44;5114793;28;20134;-81
2022/03/27 02:31:00;;;;;;;27.48;13.13;;;;;;;10.64;47.08;101159.03;5096644;28;20075;-82
2022/03/27 02:33:29;;;;;;;24.70;13.50;;;;;;;10.59;47.36;101166.34;5114477;28;20396;-76
2022/03/27 02:35:57;;;;;;;27.80;13.25;;;;;;;10.47;47.74;101156.25;5114599;28;20447;-76
2022/03/27 02:38:26;;;;;;;30.02;12.63;;;;;;;10.52;47.76;101164.94;5113833;28;20051;-76
2022/03/27 02:40:55;;;;;;;27.23;13.10;;;;;;;10.50;47.92;101166.78;5114495;28;20044;-76
2022/03/27 02:43:23;;;;;;;26.25;12.75;;;;;;;10.41;48.09;101170.72;5114263;28;20118;-76
2022/03/27 02:45:53;;;;;;;25.10;12.50;;;;;;;10.31;48.44;101172.06;5114763;28;20085;-76
2022/03/27 02:48:22;;;;;;;24.90;13.60;;;;;;;10.43;48.42;101176.88;5113889;28;20054;-75
2022/03/27 02:50:51;;;;;;;28.00;13.38;;;;;;;10.25;48.93;101173.22;5114324;28;20071;-79
2022/03/27 02:53:20;;;;;;;25.00;13.40;;;;;;;10.17;49.25;101180.66;5113836;28;20044;-80
2022/03/27 02:55:48;;;;;;;29.33;13.68;;;;;;;10.25;49.15;101181.22;5114461;28;20035;-80
2022/03/27 02:58:17;;;;;;;28.27;13.27;;;;;;;10.24;49.15;101182.16;5113691;28;20105;-80
2022/03/27 03:00:46;;;;;;;24.70;12.80;;;;;;;10.22;49.31;101181.34;5114449;28;20039;-81
2022/03/27 03:03:14;;;;;;;28.77;13.43;;;;;;;10.09;49.80;101188.13;5113966;28;20423;-84
2022/03/27 03:05:44;;;;;;;28.58;13.55;;;;;;;10.04;49.86;101187.47;5095886;28;20043;-84
2022/03/27 03:08:13;;;;;;;25.58;13.73;;;;;;;9.96;50.20;101193.13;5113847;28;20044;-84
2022/03/27 03:10:42;;;;;;;27.92;13.55;;;;;;;9.88;50.33;101194.38;5113973;28;20054;-85
2022/03/27 03:13:11;;;;;;;24.92;13.20;;;;;;;9.87;50.38;101196.16;5113713;28;20489;-84
2022/03/27 03:15:41;;;;;;;27.85;13.35;;;;;;;9.82;50.55;101205.28;5114400;28;20047;-85
2022/03/27 03:18:11;;;;;;;27.23;13.07;;;;;;;9.87;50.57;101205.97;5113800;28;20044;-84
2022/03/27 03:20:40;;;;;;;26.13;12.57;;;;;;;9.80;50.74;101202.69;5113980;28;20036;-85
2022/03/27 03:23:11;;;;;;;23.23;12.95;;;;;;;9.77;50.68;101204.63;5113639;28;20055;-80
2022/03/27 03:25:42;;;;;;;27.52;13.75;;;;;;;9.62;51.37;101219.41;5114111;28;20377;-85
2022/03/27 03:28:31;;;;;;;26.88;13.85;;;;;;;9.58;51.27;101224.03;5113808;28;20039;-82
2022/03/27 03:31:00;;;;;;;28.23;13.77;;;;;;;9.63;51.06;101224.69;5113632;28;20035;-74
2022/03/27 03:33:28;;;;;;;24.85;13.52;;;;;;;9.61;51.34;101225.69;5113358;28;20040;-75
2022/03/27 03:35:56;;;;;;;25.17;14.13;;;;;;;9.61;51.36;101223.88;5113667;28;20039;-75
2022/03/27 03:38:26;;;;;;;28.35;13.30;;;;;;;9.44;52.03;101229.88;5113380;28;20043;-74
2022/03/27 03:40:54;;;;;;;27.48;13.55;;;;;;;9.51;51.77;101232.31;5113522;28;20408;-74
2022/03/27 03:43:23;;;;;;;26.98;14.25;;;;;;;9.40;52.13;101230.09;5113120;28;20040;-74
2022/03/27 03:45:51;;;;;;;28.95;13.10;;;;;;;9.51;52.03;101229.66;5113608;28;20070;-74
2022/03/27 03:48:20;;;;;;;28.42;14.07;;;;;;;9.49;52.20;101237.72;5112476;28;20096;-74
2022/03/27 03:50:48;;;;;;;26.70;13.90;;;;;;;9.49;52.39;101243.03;5113439;28;20071;-75
2022/03/27 03:53:17;;;;;;;29.42;13.38;;;;;;;9.48;52.16;101238.63;5113216;28;20039;-75
2022/03/27 03:55:46;;;;;;;29.15;14.20;;;;;;;9.42;52.40;101244.19;5113159;28;20044;-75
2022/03/27 03:58:15;;;;;;;28.75;13.30;;;;;;;9.46;52.40;101259.16;5113196;28;20369;-76
2022/03/27 04:00:43;;;;;;;31.48;14.25;;;;;;;9.36;52.68;101260.41;5113439;28;20051;-75
2022/03/27 04:03:12;;;;;;;28.13;13.60;;;;;;;9.35;52.85;101256.00;5112991;28;20404;-77
2022/03/27 04:05:40;;;;;;;24.88;13.88;;;;;;;9.37;52.77;101260.38;5113426;28;20051;-80
2022/03/27 04:08:09;;;;;;;27.02;12.82;;;;;;;9.25;53.23;101258.16;5113469;28;20438;-79
2022/03/27 04:10:37;;;;;;;27.10;14.18;;;;;;;9.10;53.56;101275.59;5112975;28;20083;-80
2022/03/27 04:13:07;;;;;;;25.60;13.73;;;;;;;9.12;53.44;101267.56;5113441;28;20039;-81
2022/03/27 04:15:35;;;;;;;26.80;13.93;;;;;;;9.04;53.86;101270.50;5112865;28;20548;-81
2022/03/27 04:18:21;;;;;;;28.85;14.50;;;;;;;9.11;54.08;101281.78;5113198;28;20040;-81
2022/03/27 04:20:50;;;;;;;26.88;14.05;;;;;;;9.56;52.97;101280.94;5095645;28;20397;-81
2022/03/27 04:23:18;;;;;;;26.08;13.35;;;;;;;9.51;52.90;101286.44;5113025;28;20134;-80
2022/03/27 04:25:47;;;;;;;30.85;14.40;;;;;;;9.55;52.53;101285.38;5113550;28;20044;-78
2022/03/27 04:28:16;;;;;;;29.65;14.02;;;;;;;9.40;53.19;101299.31;5112944;28;20538;-78
2022/03/27 04:30:45;;;;;;;26.30;13.55;;;;;;;9.17;54.01;101303.75;5113225;28;20126;-78
2022/03/27 04:33:13;;;;;;;28.60;13.65;;;;;;;9.26;53.75;101304.28;5094913;28;20493;-78
2022/03/27 04:35:41;;;;;;;29.17;14.27;;;;;;;9.24;54.04;101311.47;5112840;28;20074;-79
2022/03/27 04:38:10;;;;;;;25.65;14.02;;;;;;;9.28;53.81;101313.09;5113264;28;20040;-79
2022/03/27 04:40:39;;;;;;;29.55;13.77;;;;;;;9.25;54.08;101319.41;5113150;28;20058;-79
2022/03/27 04:43:07;;;;;;;26.95;13.52;;;;;;;9.30;54.20;101329.88;5095302;28;20052;-79
2022/03/27 04:45:37;;;;;;;27.00;14.32;;;;;;;9.28;54.28;101331.75;5112961;28;20120;-79
2022/03/27 04:48:06;;;;;;;26.42;13.60;;;;;;;9.39;54.40;101348.19;5113181;28;20043;-80
2022/03/27 04:50:34;;;;;;;25.98;13.95;;;;;;;9.44;54.59;101354.19;5112667;28;20047;-79
2022/03/27 04:53:03;;;;;;;25.55;13.88;;;;;;;9.39;55.25;101354.38;5112740;28;20459;-84
2022/03/27 04:55:31;;;;;;;27.13;13.52;;;;;;;9.37;56.32;101364.22;5112403;28;20047;-83
2022/03/27 04:57:59;;;;;;;27.77;14.30;;;;;;;9.26;56.56;101352.22;5113370;28;20106;-86
2022/03/27 05:00:28;;;;;;;32.13;13.88;;;;;;;9.34;56.75;101364.31;5115081;28;20043;-86
2022/03/27 05:02:58;;;;;;;29.23;13.88;;;;;;;9.22;57.28;101370.09;5116855;28;20122;-85
2022/03/27 05:05:27;;;;;;;26.33;13.82;;;;;;;9.11;57.76;101367.84;5116480;28;20051;-85
2022/03/27 05:07:56;;;;;;;27.15;13.25;;;;;;;9.12;58.13;101368.69;5098385;28;20100;-85
2022/03/27 05:10:27;;;;;;;24.33;13.38;;;;;;;9.22;58.02;101379.88;5116281;28;20039;-82
2022/03/27 05:12:56;;;;;;;22.63;11.27;;;;;;;9.30;58.06;101377.81;5116474;28;20046;-84
2022/03/27 05:15:24;;;;;;;20.90;10.75;;;;;;;9.31;58.42;101384.88;5116123;28;20043;-85
2022/03/27 05:17:55;;;;;;;17.73;10.65;;;;;;;9.34;58.69;101390.94;5116117;28;20047;-82
2022/03/27 05:20:26;;;;;;;17.45;9.85;;;;;;;9.31;58.84;101384.88;5115902;28;20039;-85
2022/03/27 05:22:54;;;;;;;20.75;10.10;;;;;;;9.33;58.88;101386.53;5115979;28;20055;-84
2022/03/27 05:25:23;;;;;;;15.50;9.60;;;;;;;9.30;59.24;101391.13;5115819;28;20093;-84
2022/03/27 05:27:53;;;;;;;16.85;9.13;;;;;;;9.31;59.01;101393.72;5116166;28;20040;-86
2022/03/27 05:30:23;;;;;;;16.25;9.50;;;;;;;9.29;59.08;101387.59;5115608;28;20048;-86
2022/03/27 05:32:53;;;;;;;18.38;9.95;;;;;;;9.42;58.93;101388.88;5116311;28;20119;-87
2022/03/27 05:35:22;;;;;;;17.83;8.95;;;;;;;9.60;58.13;101392.63;5115633;28;20071;-87
2022/03/27 05:37:54;;;;;;;15.57;8.55;;;;;;;9.54;58.36;101398.19;5116042;28;20540;-87
2022/03/27 05:40:23;;;;;;;15.18;8.85;;;;;;;9.57;58.47;101408.75;5115833;28;20057;-87
2022/03/27 05:42:53;;;;;;;18.77;8.93;;;;;;;9.67;58.32;101410.13;5115910;28;20442;-88
2022/03/27 05:45:21;;;;;;;17.42;9.15;;;;;;;9.77;57.85;101409.78;5115520;28;20421;-86
2022/03/27 05:47:50;;;;;;;12.75;8.52;;;;;;;9.89;57.48;101410.16;5115831;28;20048;-87
2022/03/27 05:50:19;;;;;;;14.75;8.73;;;;;;;10.10;56.95;101413.78;5115737;28;20049;-80
2022/03/27 05:52:47;;;;;;;16.70;8.90;;;;;;;10.03;56.84;101413.16;5115782;28;20075;-81
2022/03/27 05:55:17;;;;;;;16.27;8.88;;;;;;;10.23;56.34;101423.06;5115253;28;20040;-81
2022/03/27 05:57:45;;;;;;;15.75;8.65;;;;;;;10.12;56.62;101417.25;5115432;28;20066;-81
2022/03/27 06:00:16;;;;;;;15.55;8.88;;;;;;;10.17;56.15;101415.28;5115497;28;20035;-81
2022/03/27 06:02:45;;;;;;;14.25;8.65;;;;;;;10.25;56.14;101436.34;5114957;28;20043;-81
2022/03/27 06:05:13;;;;;;;14.43;8.73;;;;;;;10.47;55.36;101439.00;5115473;28;20446;-81
2022/03/27 06:07:43;;;;;;;17.63;9.15;;;;;;;10.53;55.33;101446.75;5114793;28;20044;-81
2022/03/27 06:10:12;;;;;;;15.18;8.15;;;;;;;10.53;55.17;101449.44;5115389;28;20415;-81
2022/03/27 06:12:43;;;;;;;16.83;9.32;;;;;;;10.47;55.62;101461.22;5114236;28;20043;-81
2022/03/27 06:15:12;;;;;;;13.10;8.38;;;;;;;10.47;55.70;101455.00;5115437;28;20366;-84
2022/03/27 06:17:42;;;;;;;14.45;8.50;;;;;;;10.71;54.90;101472.69;5114818;28;20307;-76
2022/03/27 06:20:13;;;;;;;13.30;8.10;;;;;;;10.78;54.80;101458.13;5114969;28;20074;-77
2022/03/27 06:22:42;;;;;;;15.57;8.70;;;;;;;10.85;54.42;101464.09;5114474;28;20840;-76
2022/03/27 06:25:12;;;;;;;16.73;8.40;;;;;;;10.89;54.61;101466.56;5114985;28;20040;-76
2022/03/27 06:27:42;;;;;;;14.10;8.13;;;;;;;10.95;54.21;101478.78;5114551;28;20040;-80
2022/03/27 06:30:15;;;;;;;13.98;8.45;;;;;;;11.02;54.25;101471.41;5115098;28;20442;-81
2022/03/27 06:32:44;;;;;;;15.07;7.40;;;;;;;11.13;53.77;101482.47;5114581;28;20109;-86
2022/03/27 06:35:15;;;;;;;13.82;8.25;;;;;;;11.23;53.25;101478.47;5114499;28;20054;-84
2022/03/27 06:37:44;;;;;;;14.27;8.18;;;;;;;11.38;53.01;101480.47;5114651;28;20046;-84
2022/03/27 06:40:14;;;;;;;16.35;8.57;;;;;;;11.34;52.92;101486.88;5114483;28;20457;-84
2022/03/27 06:42:45;;;;;;;13.57;8.07;;;;;;;11.42;52.71;101474.06;5114014;28;20112;-84
2022/03/27 06:45:15;;;;;;;14.65;7.35;;;;;;;11.55;52.29;101484.19;5114755;28;20108;-84
2022/03/27 06:47:45;;;;;;;11.63;7.38;;;;;;;11.51;52.57;101485.28;5114266;28;20050;-84
2022/03/27 06:50:15;;;;;;;11.88;7.47;;;;;;;11.73;51.71;101484.25;5114563;28;20069;-85
2022/03/27 06:52:44;;;;;;;13.77;7.80;;;;;;;11.80;51.80;101487.56;5114099;28;20799;-84
2022/03/27 06:55:12;;;;;;;11.75;7.68;;;;;;;11.88;51.68;101490.75;5114506;28;20093;-84
2022/03/27 06:57:41;;;;;;;13.68;7.68;;;;;;;11.97;51.74;101482.31;5113989;28;20488;-84
2022/03/27 07:03:06;;;;;;;12.80;7.28;;;;;;;12.47;50.10;101503.09;5114140;28;20077;-79
2022/03/27 07:05:38;;;;;;;13.27;7.22;;;;;;;12.45;50.29;101496.06;5113979;28;20043;-78
2022/03/27 07:08:07;;;;;;;12.18;7.50;;;;;;;12.45;50.40;101499.66;5114299;28;20407;-79
2022/03/27 07:10:38;;;;;;;9.93;7.30;;;;;;;12.46;50.66;101487.13;5113840;28;20392;-79
2022/03/27 07:13:09;;;;;;;13.88;7.40;;;;;;;12.42;50.68;101489.06;5113582;28;20044;-79
2022/03/27 07:15:40;;;;;;;13.70;7.72;;;;;;;12.33;50.76;101501.06;5113471;28;20040;-79
2022/03/27 07:18:11;;;;;;;16.20;8.10;;;;;;;12.20;51.22;101497.25;5113711;28;20063;-78
2022/03/27 07:20:42;;;;;;;10.77;7.45;;;;;;;12.26;51.50;101507.69;5113435;28;20040;-79
2022/03/27 07:23:12;;;;;;;11.60;7.25;;;;;;;12.41;51.11;101506.06;5112762;28;20051;-80
2022/03/27 07:25:43;;;;;;;15.63;8.32;;;;;;;12.36;51.29;101520.63;5113248;28;20040;-79
2022/03/27 07:28:12;;;;;;;13.82;7.60;;;;;;;12.26;51.57;101520.19;5113692;28;20039;-81
2022/03/27 07:30:44;;;;;;;13.02;8.18;;;;;;;12.30;51.25;101519.09;5113473;28;20040;-83
2022/03/27 07:33:13;;;;;;;14.15;8.18;;;;;;;12.31;51.35;101523.50;5113766;28;20089;-83
2022/03/27 07:35:41;;;;;;;12.07;7.05;;;;;;;12.27;51.47;101522.78;5113074;28;20044;-83
2022/03/27 07:38:10;;;;;;;13.43;7.18;;;;;;;12.21;51.90;101535.56;5113706;28;20035;-83
2022/03/27 07:40:39;;;;;;;14.25;7.70;;;;;;;12.36;51.50;101523.28;5113068;28;20062;-83
2022/03/27 07:43:08;;;;;;;13.93;7.40;;;;;;;12.24;51.51;101522.03;5113618;28;20040;-84
2022/03/27 07:45:36;;;;;;;15.85;8.00;;;;;;;12.39;51.53;101520.47;5113231;28;20039;-79
2022/03/27 07:48:07;;;;;;;16.02;7.25;;;;;;;12.46;51.44;101527.25;5113585;28;20047;-79
2022/03/27 07:50:36;;;;;;;14.27;7.35;;;;;;;12.52;50.85;101527.81;5113375;28;20044;-79
2022/03/27 07:53:05;;;;;;;13.82;7.90;;;;;;;12.53;51.15;101526.88;5113519;28;20468;-80
2022/03/27 07:55:36;;;;;;;13.98;7.90;;;;;;;12.50;50.99;101524.34;5113221;28;20051;-80
2022/03/27 07:58:05;;;;;;;12.10;8.02;;;;;;;12.59;50.94;101518.56;5113608;28;20093;-80
2022/03/27 08:00:33;;;;;;;16.45;8.38;;;;;;;12.56;50.71;101528.56;5112897;28;20078;-80
2022/03/27 08:03:02;;;;;;;13.23;7.95;;;;;;;12.50;50.96;101523.50;5113306;28;20139;-80
2022/03/27 08:05:32;;;;;;;13.82;7.90;;;;;;;12.55;51.08;101522.34;5113132;28;20392;-80
2022/03/27 08:08:00;;;;;;;15.15;8.23;;;;;;;12.64;50.99;101530.84;5113386;28;20154;-81
2022/03/27 08:10:29;;;;;;;12.27;8.18;;;;;;;12.78;50.33;101531.06;5113068;28;20047;-80
2022/03/27 08:12:57;;;;;;;12.27;7.80;;;;;;;12.73;50.51;101527.72;5112974;28;20040;-81
2022/03/27 08:15:26;;;;;;;12.48;7.82;;;;;;;12.77;50.60;101522.16;5113316;28;20051;-81
2022/03/27 08:17:55;;;;;;;15.45;8.45;;;;;;;12.81;50.35;101522.84;5112943;28;20044;-85
2022/03/27 08:20:25;;;;;;;17.80;8.18;;;;;;;12.89;50.40;101534.06;5113117;28;20050;-84
2022/03/27 08:22:58;;;;;;;13.40;8.20;;;;;;;12.88;50.38;101529.66;5112738;28;20062;-83
2022/03/27 08:28:14;;;;;;;12.13;8.25;;;;;;;12.76;50.23;101530.25;5113318;28;20127;-80
2022/03/27 08:30:43;;;;;;;13.93;8.32;;;;;;;12.95;49.66;101530.22;5113070;28;20044;-80
2022/03/27 08:33:12;;;;;;;13.77;8.43;;;;;;;13.00;50.02;101534.38;5113089;28;20040;-81
2022/03/27 08:35:42;;;;;;;12.40;8.50;;;;;;;13.23;49.43;101529.75;5115294;28;20047;-81
2022/03/27 08:38:13;;;;;;;14.00;8.32;;;;;;;13.25;49.13;101533.19;5116831;28;20067;-81
2022/03/27 08:40:43;;;;;;;13.07;8.20;;;;;;;13.27;49.09;101528.63;5116728;28;20427;-82
2022/03/27 08:43:13;;;;;;;13.50;8.45;;;;;;;13.43;48.81;101524.22;5116872;28;20047;-82
2022/03/27 08:45:42;;;;;;;14.00;8.23;;;;;;;13.44;48.70;101529.50;5116749;28;20402;-83
2022/03/27 08:48:12;;;;;;;14.27;8.80;;;;;;;13.63;48.12;101529.41;5098761;28;20407;-83
2022/03/27 08:50:45;;;;;;;13.05;8.43;;;;;;;13.67;48.13;101536.31;5116455;28;20484;-82
2022/03/27 08:53:15;;;;;;;14.57;8.30;;;;;;;13.60;48.01;101536.72;5116819;28;20032;-83
2022/03/27 08:55:48;;;;;;;14.85;9.10;;;;;;;13.52;48.26;101539.81;5116440;28;20040;-83
2022/03/27 08:58:19;;;;;;;16.27;9.50;;;;;;;13.54;48.29;101545.09;5116774;28;20050;-83
2022/03/27 09:00:49;;;;;;;16.85;9.25;;;;;;;13.42;48.65;101538.56;5116331;28;20043;-83
2022/03/27 09:03:21;;;;;;;14.27;9.15;;;;;;;13.46;48.45;101527.59;5115348;28;20101;-83
2022/03/27 09:05:50;;;;;;;16.15;8.93;;;;;;;13.53;48.64;101536.19;5116267;28;20381;-82
2022/03/27 09:08:20;;;;;;;13.63;8.90;;;;;;;13.61;48.50;101531.31;5116375;28;20052;-84
2022/03/27 09:10:48;;;;;;;16.13;9.05;;;;;;;13.49;48.21;101534.59;5116124;28;20065;-76
2022/03/27 09:13:19;;;;;;;15.45;8.68;;;;;;;13.52;48.31;101536.28;5115796;28;20089;-76
2022/03/27 09:15:59;;;;;;;17.15;8.80;;;;;;;13.62;48.12;101532.16;5115877;28;20500;-75
2022/03/27 09:18:41;;;;;;;15.07;8.85;;;;;;;13.78;48.06;101537.56;5116291;28;20039;-75
2022/03/27 09:21:10;;;;;;;12.82;8.73;;;;;;;13.77;47.50;101535.84;5116252;28;20396;-78
2022/03/27 09:23:40;;;;;;;13.35;8.73;;;;;;;13.67;47.72;101539.00;5115505;28;20051;-81
2022/03/27 09:26:11;;;;;;;16.23;9.30;;;;;;;13.71;47.38;101537.91;5115736;28;20054;-77
2022/03/27 09:28:41;;;;;;;13.75;9.38;;;;;;;13.74;47.76;101529.69;5115501;28;20067;-77
2022/03/27 09:31:22;;;;;;;14.60;8.55;;;;;;;13.83;47.83;101530.16;5116093;28;20119;-77
2022/03/27 09:33:52;;;;;;;14.52;9.30;;;;;;;13.74;47.45;101524.34;5115549;28;20387;-76
2022/03/27 09:36:23;;;;;;;13.07;8.77;;;;;;;13.79;47.34;101525.88;5103453;28;20422;-75
2022/03/27 09:39:05;;;;;;;16.52;9.45;;;;;;;13.92;47.09;101522.47;5095224;28;20064;-76
2022/03/27 09:41:37;;;;;;;15.07;9.20;;;;;;;13.97;46.58;101516.84;5095469;28;20043;-74
2022/03/27 09:44:11;;;;;;;16.52;9.50;;;;;;;14.05;46.56;101530.72;5093990;28;20111;-74
2022/03/27 09:46:54;;;;;;;17.00;9.30;;;;;;;14.00;46.30;101519.41;5094028;28;20397;-74
2022/03/27 09:49:26;;;;;;;15.43;9.18;;;;;;;14.00;45.94;101519.41;5095348;28;20473;-76
2022/03/27 09:51:57;;;;;;;15.30;9.48;;;;;;;14.06;46.12;101519.03;5094898;28;20451;-76
2022/03/27 09:54:29;;;;;;;15.25;9.07;;;;;;;14.07;45.93;101517.22;5094900;28;20105;-76
2022/03/27 09:56:57;;;;;;;14.90;9.75;;;;;;;14.14;45.74;101522.19;5093544;28;20105;-78
2022/03/27 09:59:31;;;;;;;15.60;9.88;;;;;;;14.13;45.79;101516.91;5095061;28;20089;-79
2022/03/27 10:02:18;;;;;;;;;;;;;;;14.20;45.98;101513.81;5095236;28;20044;-78
2022/03/27 10:04:55;;;;;;;15.93;9.27;;;;;;;14.40;45.83;101519.88;5093477;28;20034;-78
2022/03/27 10:07:25;;;;;;;18.55;9.60;;;;;;;14.50;45.08;101519.31;5094960;28;20052;-77
2022/03/27 10:09:56;;;;;;;14.85;9.50;;;;;;;14.44;45.00;101518.75;5094202;28;20048;-78
2022/03/27 10:12:29;;;;;;;14.75;9.20;;;;;;;14.40;45.02;101510.00;5094870;28;20044;-77
2022/03/27 10:15:00;;;;;;;18.42;9.70;;;;;;;14.35;45.22;101511.19;5094282;28;20048;-78
2022/03/27 10:17:34;;;;;;;17.00;9.70;;;;;;;14.27;45.29;101515.16;5094781;28;20111;-80
2022/03/27 10:20:09;;;;;;;14.13;8.82;;;;;;;14.51;45.06;101517.47;5093949;28;20101;-77
2022/03/27 10:22:40;;;;;;;15.98;8.65;;;;;;;14.56;44.59;101502.81;5094516;28;20058;-78
2022/03/27 10:25:12;;;;;;;16.30;9.77;;;;;;;14.58;44.71;101514.38;5094217;28;20566;-77
2022/03/27 10:27:43;;;;;;;14.57;9.20;;;;;;;14.72;44.36;101515.38;5094519;28;20052;-78
2022/03/27 10:30:13;;;;;;;15.57;9.00;;;;;;;14.82;43.55;101512.09;5076501;28;20466;-78
2022/03/27 10:32:43;;;;;;;17.65;9.27;;;;;;;14.85;43.80;101517.25;5094309;28;20036;-78
2022/03/27 10:35:36;;;;;;;17.52;9.00;;;;;;;14.89;43.77;101521.53;5094313;28;20054;-77
2022/03/27 10:38:20;;;;;;;15.38;9.43;;;;;;;14.86;43.36;101515.44;5094015;28;20051;-77
2022/03/27 10:41:02;;;;;;;18.58;8.93;;;;;;;14.94;43.30;101510.50;5093946;28;20048;-81
2022/03/27 10:43:40;;;;;;;15.40;9.82;;;;;;;15.12;42.84;101513.91;5094344;28;20044;-79
2022/03/27 10:46:16;;;;;;;14.60;8.95;;;;;;;15.01;42.83;101509.19;5094511;28;20052;-78
2022/03/27 10:48:45;;;;;;;14.02;9.18;;;;;;;15.10;42.71;101508.66;5093799;28;20101;-78
2022/03/27 10:51:37;;;;;;;15.82;9.10;;;;;;;15.16;42.08;101510.13;5093963;28;20040;-81
2022/03/27 10:54:08;;;;;;;17.27;9.82;;;;;;;15.09;42.06;101504.22;5093701;28;20047;-79
2022/03/27 10:56:40;;;;;;;17.17;9.43;;;;;;;15.05;42.25;101504.47;5094095;28;20085;-80
2022/03/27 10:59:11;;;;;;;14.80;9.35;;;;;;;15.13;41.91;101494.16;5093611;28;20113;-80
2022/03/27 11:01:42;;;;;;;16.23;9.05;;;;;;;15.15;41.72;101497.59;5093979;28;20492;-80
2022/03/27 11:04:12;;;;;;;13.32;8.82;;;;;;;15.29;41.61;101496.81;5093542;28;20481;-80
2022/03/27 11:06:42;;;;;;;15.63;9.02;;;;;;;15.20;41.69;101500.91;5093903;28;20119;-75
2022/03/27 11:09:13;;;;;;;14.90;9.15;;;;;;;15.09;41.83;101498.00;5093643;28;20044;-78
2022/03/27 11:12:02;;;;;;;14.82;8.77;;;;;;;15.36;41.50;101490.97;5075586;28;20477;-79
2022/03/27 11:14:59;;;;;;;14.32;8.85;;;;;;;15.31;41.34;101490.38;5093121;28;20044;-79
2022/03/27 11:17:34;;;;;;;17.17;9.98;;;;;;;15.35;41.27;101491.94;5093311;28;20493;-79
2022/03/27 11:20:03;;;;;;;17.23;9.27;;;;;;;15.42;41.01;101484.34;5092021;28;20055;-79
2022/03/27 11:22:47;;;;;;;14.00;9.18;;;;;;;15.51;40.81;101482.91;5093560;28;20397;-78
2022/03/27 11:25:31;;;;;;;16.52;9.80;;;;;;;15.37;40.94;101470.31;5093483;28;20067;-82
2022/03/27 11:28:08;;;;;;;14.63;9.27;;;;;;;15.48;40.72;101480.41;5092866;28;20044;-79
2022/03/27 11:30:41;;;;;;;14.15;9.35;;;;;;;15.42;40.79;101473.56;5093177;28;20053;-78
2022/03/27 11:33:19;;;;;;;13.57;8.45;;;;;;;15.45;40.94;101471.59;5093161;28;20423;-80
2022/03/27 11:36:21;;;;;;;14.32;9.57;;;;;;;15.64;40.45;101467.81;5093013;28;20050;-78
2022/03/27 11:39:02;;;;;;;13.40;9.43;;;;;;;15.65;40.21;101470.41;5089067;28;20078;-76
2022/03/27 11:41:38;;;;;;;14.45;8.82;;;;;;;15.63;40.19;101466.03;5093437;28;20082;-75